createdAt,value
2022-08-25T00:02:00.000Z,35.60
2022-08-25T00:07:06.391Z,35.50
2022-08-25T00:12:09.721Z,35.80
2022-08-25T00:17:12.896Z,35.30
2022-08-25T00:22:17.589Z,35.30
2022-08-25T00:27:21.062Z,35.60
2022-08-25T00:32:25.573Z,35.40
2022-08-25T00:37:30.270Z,35.50
2022-08-25T00:42:33.466Z,36.00
2022-08-25T00:47:37.033Z,35.80
2022-08-25T00:52:46.137Z,35.90
2022-08-25T00:57:53.644Z,36.80
2022-08-25T01:02:58.069Z,36.40
2022-08-25T01:08:06.771Z,35.90
2022-08-25T01:13:16.332Z,36.30
2022-08-25T01:18:20.720Z,36.50
2022-08-25T01:23:26.638Z,36.40
2022-08-25T01:28:29.891Z,36.80
2022-08-25T01:33:32.996Z,36.40
2022-08-25T01:38:37.813Z,36.60
2022-08-25T01:43:40.997Z,36.90
2022-08-25T01:48:44.168Z,36.60
2022-08-25T01:53:48.688Z,36.60
2022-08-25T01:58:51.885Z,37.20
2022-08-25T02:03:57.141Z,36.70
2022-08-25T02:09:05.664Z,37.40
2022-08-25T02:14:09.976Z,37.60
2022-08-25T02:19:13.769Z,37.10
2022-08-25T02:24:18.834Z,37.40
2022-08-25T02:29:21.960Z,37.60
2022-08-25T02:34:25.089Z,37.30
2022-08-25T02:39:29.642Z,37.40
2022-08-25T02:44:32.934Z,37.30
2022-08-25T02:49:36.388Z,37.30
2022-08-25T02:54:41.012Z,37.30
2022-08-25T02:59:47.324Z,37.30
2022-08-25T03:04:50.773Z,37.30
2022-08-25T03:09:55.312Z,37.20
2022-08-25T03:14:58.541Z,37.10
2022-08-25T03:20:01.720Z,37.10
2022-08-25T03:25:25.595Z,37.10
2022-08-25T03:30:29.468Z,37.40
2022-08-25T03:35:32.645Z,36.90
2022-08-25T03:40:38.156Z,36.90
2022-08-25T03:45:42.148Z,37.80
2022-08-25T03:50:50.516Z,37.60
2022-08-25T03:55:57.373Z,37.80
2022-08-25T04:01:01.007Z,37.90
2022-08-25T04:06:04.802Z,37.60
2022-08-25T04:11:11.823Z,37.70
2022-08-25T04:16:17.645Z,38.40
2022-08-25T04:21:22.184Z,37.80
2022-08-25T04:26:28.867Z,37.90
2022-08-25T04:31:33.093Z,38.30
2022-08-25T04:36:36.858Z,38.00
2022-08-25T04:41:41.429Z,38.20
2022-08-25T04:46:44.909Z,38.50
2022-08-25T04:51:48.119Z,38.20
2022-08-25T04:56:54.666Z,38.20
2022-08-25T05:02:03.489Z,38.80
2022-08-25T05:07:06.890Z,38.40
2022-08-25T05:12:11.901Z,38.50
2022-08-25T05:17:15.829Z,39.40
2022-08-25T05:22:18.985Z,38.80
2022-08-25T05:27:23.554Z,38.90
2022-08-25T05:32:26.789Z,39.50
2022-08-25T05:37:29.959Z,39.60
2022-08-25T05:42:34.544Z,39.80
2022-08-25T05:47:37.689Z,40.30
2022-08-25T05:52:40.892Z,40.30
2022-08-25T05:57:45.515Z,40.60
2022-08-25T06:02:49.724Z,41.90
2022-08-25T06:07:53.916Z,41.40
2022-08-25T06:12:58.515Z,42.30
2022-08-25T06:18:03.452Z,43.00
2022-08-25T06:23:06.785Z,42.50
2022-08-25T06:28:11.333Z,42.70
2022-08-25T06:33:14.889Z,44.00
2022-08-25T06:38:18.058Z,43.30
2022-08-25T06:43:23.485Z,43.40
2022-08-25T06:48:26.728Z,44.70
2022-08-25T06:53:29.872Z,43.70
2022-08-25T06:58:34.984Z,43.80
2022-08-25T07:03:38.360Z,44.70
2022-08-25T07:08:41.637Z,44.10
2022-08-25T07:13:46.849Z,44.00
2022-08-25T07:18:50.438Z,45.30
2022-08-25T07:23:53.793Z,44.40
2022-08-25T07:28:59.769Z,44.70
2022-08-25T07:34:20.520Z,45.70
2022-08-25T07:39:25.017Z,44.80
2022-08-25T07:44:29.593Z,44.80
2022-08-25T07:49:36.018Z,45.20
2022-08-25T07:54:43.538Z,44.60
2022-08-25T07:59:51.952Z,44.10
2022-08-25T08:04:55.525Z,44.20
2022-08-25T08:10:27.982Z,44.00
2022-08-25T08:15:24.257Z,43.60
2022-08-25T08:20:31.754Z,43.30
2022-08-25T08:26:10.363Z,43.00
2022-08-25T08:31:15.936Z,43.00
2022-08-25T08:36:19.232Z,42.40
2022-08-25T08:42:12.074Z,42.00
2022-08-25T08:47:27.748Z,41.70
2022-08-25T08:52:39.129Z,41.20
2022-08-25T09:03:04.021Z,40.50
2022-08-25T09:08:12.496Z,39.60
2022-08-25T09:13:26.082Z,39.40
2022-08-25T09:18:41.260Z,38.90
2022-08-25T09:24:11.759Z,38.30
2022-08-25T09:29:18.573Z,38.90
2022-08-25T09:34:28.856Z,39.10
2022-08-25T09:39:32.029Z,37.90
2022-08-25T09:44:40.997Z,37.90
2022-08-25T09:49:49.173Z,37.40
2022-08-25T09:54:53.166Z,37.00
2022-08-25T09:59:57.950Z,37.20
2022-08-25T10:05:19.765Z,36.50
2022-08-25T10:10:32.339Z,35.90
2022-08-25T10:15:38.722Z,35.20
2022-08-25T10:20:44.761Z,35.20
2022-08-25T10:25:59.095Z,35.10
2022-08-25T10:31:11.507Z,35.00
2022-08-25T10:36:21.443Z,34.80
2022-08-25T10:41:48.287Z,34.80
2022-08-25T10:47:03.450Z,34.60
2022-08-25T10:52:17.469Z,34.10
2022-08-25T10:57:28.995Z,34.10
2022-08-25T11:03:05.296Z,34.00
2022-08-25T11:08:15.099Z,34.30
2022-08-25T11:13:25.197Z,33.50
2022-08-25T11:18:31.882Z,33.40
2022-08-25T11:23:39.566Z,33.80
2022-08-25T11:28:53.548Z,33.10
2022-08-25T11:33:58.462Z,33.30
2022-08-25T11:39:18.027Z,33.70
2022-08-25T11:44:53.759Z,33.30
2022-08-25T11:50:03.523Z,33.20
2022-08-25T11:55:12.599Z,32.60
2022-08-25T12:00:36.190Z,32.40
2022-08-25T12:05:53.469Z,32.90
2022-08-25T12:11:09.975Z,31.60
2022-08-25T12:16:41.981Z,31.60
2022-08-25T12:21:46.884Z,31.70
2022-08-25T12:26:59.147Z,31.70
2022-08-25T12:32:19.768Z,31.70
2022-08-25T12:37:25.062Z,31.70
2022-08-25T12:42:36.149Z,31.70
2022-08-25T12:47:44.802Z,30.50
2022-08-25T12:52:49.267Z,31.20
2022-08-25T12:58:00.910Z,31.10
2022-08-25T13:09:20.565Z,30.60
2022-08-25T13:14:37.563Z,30.50
2022-08-25T13:19:41.491Z,30.00
2022-08-25T13:24:47.640Z,30.10
2022-08-25T13:29:58.114Z,29.70
2022-08-25T13:35:17.749Z,29.40
2022-08-25T13:40:26.726Z,29.30
2022-08-25T13:45:40.235Z,29.20
2022-08-25T13:50:45.132Z,28.90
2022-08-25T13:55:58.574Z,29.50
2022-08-25T14:01:23.516Z,29.20
2022-08-25T14:06:33.455Z,28.80
2022-08-25T14:11:44.534Z,28.90
2022-08-25T14:16:52.102Z,28.10
2022-08-25T14:22:02.036Z,28.50
2022-08-25T14:27:06.557Z,28.60
2022-08-25T14:32:11.901Z,28.60
2022-08-25T14:37:18.649Z,27.80
2022-08-25T14:42:22.713Z,27.80
2022-08-25T14:47:31.833Z,28.10
2022-08-25T14:52:35.447Z,27.60
2022-08-25T14:57:38.669Z,27.60
2022-08-25T15:02:46.684Z,27.60
2022-08-25T15:08:07.408Z,27.30
2022-08-25T15:13:10.684Z,27.80
2022-08-25T15:18:15.617Z,27.90
2022-08-25T15:23:19.502Z,27.70
2022-08-25T15:28:23.134Z,27.80
2022-08-25T15:33:31.092Z,27.80
2022-08-25T15:38:34.501Z,27.00
2022-08-25T15:43:37.807Z,27.30
2022-08-25T15:48:42.938Z,27.30
2022-08-25T15:53:46.133Z,27.20
2022-08-25T15:58:49.972Z,27.60
2022-08-25T16:03:55.793Z,27.50
2022-08-25T16:09:00.033Z,27.00
2022-08-25T16:14:03.431Z,27.10
2022-08-25T16:19:07.977Z,27.40
2022-08-25T16:24:11.110Z,27.40
2022-08-25T16:29:14.893Z,27.50
2022-08-25T16:34:19.473Z,27.70
2022-08-25T16:39:24.116Z,27.40
2022-08-25T16:44:27.382Z,27.20
2022-08-25T16:49:32.102Z,27.20
2022-08-25T16:54:52.709Z,27.10
2022-08-25T16:59:56.188Z,27.20
2022-08-25T17:05:00.944Z,27.40
2022-08-25T17:10:05.353Z,27.60
2022-08-25T17:15:09.448Z,28.20
2022-08-25T17:20:14.130Z,27.60
2022-08-25T17:25:17.703Z,27.50
2022-08-25T17:30:21.737Z,27.80
2022-08-25T17:35:26.722Z,27.80
2022-08-25T17:40:29.931Z,27.90
2022-08-25T17:45:33.261Z,28.80
2022-08-25T17:50:39.129Z,28.80
2022-08-25T17:55:43.269Z,29.00
2022-08-25T18:00:47.150Z,29.10
2022-08-25T18:05:51.815Z,29.30
2022-08-25T18:10:55.423Z,29.70
2022-08-25T18:15:58.620Z,29.40
2022-08-25T18:21:03.169Z,29.70
2022-08-25T18:26:06.816Z,30.00
2022-08-25T18:31:12.004Z,30.00
2022-08-25T18:36:17.725Z,30.00
2022-08-25T18:41:21.228Z,30.70
2022-08-25T18:46:24.398Z,30.50
2022-08-25T18:51:32.823Z,30.90
2022-08-25T18:56:36.647Z,30.90
2022-08-25T19:01:41.472Z,30.80
2022-08-25T19:06:46.860Z,30.70
2022-08-25T19:11:50.170Z,30.60
2022-08-25T19:16:54.085Z,30.50
2022-08-25T19:21:59.326Z,30.70
2022-08-25T19:27:03.303Z,31.60
2022-08-25T19:32:06.950Z,31.20
2022-08-25T19:37:13.400Z,31.40
2022-08-25T19:42:34.835Z,32.10
2022-08-25T19:47:41.358Z,31.90
2022-08-25T19:52:46.874Z,32.00
2022-08-25T19:57:53.536Z,32.40
2022-08-25T20:02:57.655Z,32.20
2022-08-25T20:08:02.484Z,32.40
2022-08-25T20:13:06.905Z,33.20
2022-08-25T20:18:10.675Z,32.80
2022-08-25T20:23:32.693Z,32.90
2022-08-25T20:28:36.001Z,33.20
2022-08-25T20:33:39.132Z,33.00
2022-08-25T20:38:44.968Z,33.00
2022-08-25T20:43:48.302Z,33.70
2022-08-25T20:48:51.416Z,33.50
2022-08-25T20:53:56.680Z,33.50
2022-08-25T20:59:00.968Z,33.70
2022-08-25T21:04:05.073Z,33.80
2022-08-25T21:09:15.684Z,33.80
2022-08-25T21:14:19.382Z,34.50
2022-08-25T21:19:26.587Z,33.90
2022-08-25T21:24:34.677Z,34.10
2022-08-25T21:29:38.842Z,34.30
2022-08-25T21:34:52.792Z,34.20
2022-08-25T21:39:58.214Z,34.90
2022-08-25T21:45:01.392Z,34.60
2022-08-25T21:50:06.276Z,34.40
2022-08-25T21:55:15.803Z,34.60
2022-08-25T22:00:19.230Z,35.10
2022-08-25T22:05:24.565Z,34.70
2022-08-25T22:10:29.132Z,34.90
2022-08-25T22:15:32.364Z,35.10
2022-08-25T22:20:35.487Z,34.90
2022-08-25T22:25:44.283Z,34.80
2022-08-25T22:30:47.486Z,35.40
2022-08-25T22:35:54.319Z,35.10
2022-08-25T22:41:04.281Z,35.20
2022-08-25T22:46:12.748Z,35.50
2022-08-25T22:51:18.001Z,35.30
2022-08-25T22:56:31.003Z,36.00
2022-08-25T23:01:34.781Z,36.40
2022-08-25T23:06:37.934Z,35.90
2022-08-25T23:11:42.444Z,35.70
2022-08-25T23:16:45.624Z,36.10
2022-08-25T23:22:06.260Z,35.80
2022-08-25T23:27:12.366Z,36.20
2022-08-25T23:32:16.264Z,36.60
2022-08-25T23:37:19.944Z,36.30
2022-08-25T23:42:24.464Z,36.40
2022-08-25T23:47:27.909Z,36.90
2022-08-25T23:52:31.126Z,36.60
2022-08-25T23:57:36.392Z,36.80
